Time;durP1;ratioP1;P1;durP2;ratioP2;P2;SDS_P1;SDS_P2;PMS_P1;PMS_P2;Temp;Humidity;BMP_temperature;BMP_pressure;BME280_temperature;BME280_humidity;BME280_pressure;Samples;Min_cycle;Max_cycle;Signal;HPM_P1;HPM_P2
2021/01/03 05:39:17;;;;;;;100.50;38.60;;;2.80;99.90;;;;;;12926852;22;20024;-91
2021/01/03 05:44:25;;;;;;;98.35;40.72;;;2.70;99.90;;;;;;12901897;23;20087;-91
2021/01/03 05:49:28;;;;;;;108.03;41.78;;;2.70;99.90;;;;;;12877439;23;20349;-91
2021/01/03 05:54:38;;;;;;;112.43;40.22;;;2.80;99.90;;;;;;12877561;23;20027;-91
2021/01/03 05:59:42;;;;;;;112.00;41.55;;;2.70;99.90;;;;;;12902230;23;20020;-91
2021/01/03 06:04:44;;;;;;;114.55;39.60;;;2.70;99.90;;;;;;12877238;23;20027;-91
2021/01/03 06:09:45;;;;;;;89.07;37.15;;;2.70;99.90;;;;;;12853160;23;20031;-91
2021/01/03 06:15:06;;;;;;;99.97;39.35;;;2.70;99.90;;;;;;12877993;23;20047;-91
2021/01/03 06:20:20;;;;;;;95.47;38.38;;;2.70;99.90;;;;;;12876257;23;20508;-91
2021/01/03 06:25:41;;;;;;;88.10;39.03;;;2.80;99.90;;;;;;12876542;23;20051;-91
2021/01/03 06:31:08;;;;;;;85.57;37.60;;;2.70;99.90;;;;;;12878257;23;20028;-91
2021/01/03 06:36:19;;;;;;;87.30;37.17;;;2.80;99.90;;;;;;12876419;23;20028;-91
2021/01/03 06:41:48;;;;;;;115.22;43.72;;;2.80;99.90;;;;;;12903060;23;20017;-91
2021/01/03 06:47:27;;;;;;;105.32;42.58;;;2.80;99.90;;;;;;12877100;23;20020;-91
2021/01/03 06:53:02;;;;;;;102.38;42.25;;;2.70;99.90;;;;;;12876983;23;20031;-91
2021/01/03 06:58:25;;;;;;;94.03;37.67;;;2.80;99.90;;;;;;12901437;23;20023;-91
2021/01/03 07:03:32;;;;;;;93.45;37.90;;;2.80;99.90;;;;;;12875821;23;20029;-91
2021/01/03 07:08:53;;;;;;;87.50;40.03;;;2.70;99.90;;;;;;12875601;23;20036;-91
2021/01/03 07:13:54;;;;;;;91.68;40.53;;;2.70;99.90;;;;;;12900881;23;20031;-91
2021/01/03 07:18:58;;;;;;;86.60;37.58;;;2.70;99.90;;;;;;12875783;23;20099;-92
2021/01/03 07:24:24;;;;;;;96.97;40.67;;;2.70;99.90;;;;;;12875740;23;20488;-91
2021/01/03 07:29:27;;;;;;;98.05;41.70;;;2.70;99.90;;;;;;12901749;23;20020;-91
2021/01/03 07:34:33;;;;;;;83.53;35.58;;;2.70;99.90;;;;;;12875801;23;20046;-91
2021/01/03 07:40:05;;;;;;;94.90;40.22;;;2.70;99.90;;;;;;12875666;23;20026;-91
2021/01/03 07:45:38;;;;;;;91.63;39.92;;;2.70;99.90;;;;;;12875301;23;20020;-90
2021/01/03 07:50:40;;;;;;;86.97;37.58;;;2.70;99.90;;;;;;12900376;23;20103;-90
2021/01/03 07:55:42;;;;;;;69.53;33.25;;;2.70;99.90;;;;;;12874736;23;20031;-91
2021/01/03 08:00:52;;;;;;;75.22;31.58;;;2.70;99.90;;;;;;12875012;23;20020;-90
2021/01/03 08:06:06;;;;;;;68.05;32.42;;;2.70;99.90;;;;;;12873212;23;20027;-90
2021/01/03 08:11:32;;;;;;;73.05;35.40;;;2.60;99.90;;;;;;12875782;23;20070;-91
2021/01/03 08:16:37;;;;;;;69.82;34.30;;;2.70;99.90;;;;;;12874230;23;20405;-90
2021/01/03 08:21:41;;;;;;;70.90;33.92;;;2.70;99.90;;;;;;12874725;23;20074;-90
2021/01/03 08:27:16;;;;;;;75.57;33.78;;;2.70;99.90;;;;;;12874605;23;20016;-90
2021/01/03 08:32:22;;;;;;;64.43;32.83;;;2.70;99.90;;;;;;12864335;23;20047;-90
2021/01/03 08:37:42;;;;;;;62.38;31.65;;;2.70;99.90;;;;;;12874798;23;20342;-90
2021/01/03 08:42:53;;;;;;;66.78;30.35;;;2.70;99.90;;;;;;12875488;23;20020;-90
2021/01/03 08:48:01;;;;;;;52.25;27.70;;;2.70;99.90;;;;;;12875831;23;20099;-91
2021/01/03 08:53:09;;;;;;;50.03;26.63;;;2.70;99.90;;;;;;12879028;23;20020;-91
2021/01/03 08:58:18;;;;;;;56.25;27.73;;;2.70;99.90;;;;;;12879219;23;20024;-91
2021/01/03 09:03:21;;;;;;;47.47;27.30;;;2.70;99.90;;;;;;12903906;23;20024;-91
2021/01/03 09:08:33;;;;;;;55.05;28.02;;;2.80;99.90;;;;;;12878087;23;20031;-90
2021/01/03 09:13:45;;;;;;;46.77;25.07;;;2.80;99.90;;;;;;12877883;23;20024;-90
2021/01/03 09:19:22;;;;;;;44.08;25.35;;;2.90;99.90;;;;;;12878966;23;20016;-92
2021/01/03 09:24:34;;;;;;;42.67;24.90;;;2.80;99.90;;;;;;12877336;23;20027;-90
2021/01/03 09:29:39;;;;;;;45.13;23.98;;;2.80;99.90;;;;;;12876853;23;20050;-89
2021/01/03 09:34:51;;;;;;;41.45;22.83;;;2.80;99.90;;;;;;12877916;23;20024;-90
2021/01/03 09:40:31;;;;;;;36.67;20.30;;;2.80;99.90;;;;;;12876982;23;20028;-90
2021/01/03 09:46:19;;;;;;;36.22;19.58;;;2.90;99.90;;;;;;12902220;23;20027;-90
2021/01/03 09:51:35;;;;;;;33.97;18.67;;;2.90;99.90;;;;;;12879418;23;20024;-91
2021/01/03 09:56:45;;;;;;;26.73;16.20;;;2.90;99.90;;;;;;12879294;23;20021;-91
2021/01/03 10:01:50;;;;;;;25.48;15.75;;;2.90;99.90;;;;;;12877189;23;20023;-90
2021/01/03 10:07:09;;;;;;;25.08;16.20;;;3.00;99.90;;;;;;12877761;23;20027;-92
2021/01/03 10:12:27;;;;;;;26.58;14.75;;;3.00;99.90;;;;;;12877983;23;20031;-91
2021/01/03 10:17:29;;;;;;;24.90;15.48;;;3.00;99.90;;;;;;12854676;23;20024;-91
2021/01/03 10:22:34;;;;;;;;;;;3.00;99.90;;;;;;12876777;23;20020;-92
2021/01/03 10:27:36;;;;;;;19.70;12.55;;;3.00;99.90;;;;;;12876278;23;19922;-92
2021/01/03 10:32:38;;;;;;;21.58;13.98;;;3.10;99.90;;;;;;12877403;23;20480;-91
2021/01/03 10:37:40;;;;;;;;;;;3.10;99.90;;;;;;12852405;23;20024;-90
2021/01/03 10:42:42;;;;;;;18.67;11.25;;;3.10;99.90;;;;;;12900715;23;19939;-89
2021/01/03 10:47:43;;;;;;;18.92;11.30;;;3.10;99.90;;;;;;12875632;23;20016;-91
2021/01/03 10:52:45;;;;;;;19.60;13.05;;;3.10;99.90;;;;;;12875575;23;20450;-90
2021/01/03 10:57:46;;;;;;;;;;;3.20;99.90;;;;;;12876329;23;20024;-91
2021/01/03 11:02:48;;;;;;;18.42;11.73;;;3.20;99.90;;;;;;12851247;23;19915;-91
2021/01/03 11:07:51;;;;;;;17.55;11.40;;;3.20;99.90;;;;;;12876484;23;20341;-90
2021/01/03 11:12:53;;;;;;;20.38;11.65;;;3.20;99.90;;;;;;12876037;23;20040;-90
2021/01/03 11:18:29;;;;;;;20.10;11.50;;;3.20;99.90;;;;;;12877107;23;20020;-91
2021/01/03 12:24:41;;;;;;;17.13;10.53;;;3.30;99.90;;;;;;12931024;23;20032;-94
2021/01/03 12:29:43;;;;;;;15.68;10.13;;;3.30;99.90;;;;;;12879341;23;20465;-94
2021/01/03 12:34:45;;;;;;;17.00;10.23;;;3.20;99.90;;;;;;12854830;23;20099;-94
2021/01/03 12:39:48;;;;;;;17.58;9.65;;;3.20;99.90;;;;;;12830005;23;20016;-94
2021/01/03 12:44:50;;;;;;;14.05;9.65;;;3.30;99.90;;;;;;12879468;23;20042;-94
2021/01/03 12:49:51;;;;;;;14.65;9.40;;;3.30;99.90;;;;;;12879712;23;20054;-93
2021/01/03 12:54:53;;;;;;;15.85;10.02;;;3.30;99.90;;;;;;12830060;23;20031;-94
2021/01/03 12:59:54;;;;;;;17.98;10.57;;;3.30;99.90;;;;;;12829477;23;20341;-94
2021/01/03 13:04:59;;;;;;;23.42;10.57;;;3.30;99.90;;;;;;12854813;23;20016;-94
2021/01/03 13:10:04;;;;;;;20.15;11.73;;;3.30;99.90;;;;;;12831287;23;20024;-93
2021/01/03 13:15:09;;;;;;;23.80;12.48;;;3.30;99.90;;;;;;12854708;23;20031;-93
2021/01/03 13:20:11;;;;;;;24.38;13.48;;;3.30;99.90;;;;;;12878790;23;20016;-94
2021/01/03 13:25:13;;;;;;;23.98;13.73;;;3.30;99.90;;;;;;12831733;23;20028;-94
2021/01/03 13:30:16;;;;;;;;;;;3.30;99.90;;;;;;12831341;23;20059;-94
2021/01/03 13:35:18;;;;;;;22.77;13.27;;;3.30;99.90;;;;;;12854508;23;19938;-94
2021/01/03 13:40:20;;;;;;;19.17;12.40;;;3.30;99.90;;;;;;12877941;23;20122;-94
2021/01/03 13:45:22;;;;;;;;;;;3.30;99.90;;;;;;12854869;23;20020;-94
2021/01/03 13:50:25;;;;;;;19.33;11.55;;;3.40;99.90;;;;;;12852984;23;19915;-94
2021/01/03 13:55:26;;;;;;;;;;;3.40;99.90;;;;;;12854487;23;20378;-94
2021/01/03 14:00:28;;;;;;;23.35;13.52;;;3.30;99.90;;;;;;12877891;23;19915;-94
2021/01/03 14:05:29;;;;;;;22.42;13.43;;;3.40;99.90;;;;;;12828643;23;20047;-94
2021/01/03 14:10:31;;;;;;;24.65;14.77;;;3.30;99.90;;;;;;12852466;23;20031;-94
2021/01/03 14:15:32;;;;;;;;;;;3.40;99.90;;;;;;12830423;23;20100;-93
2021/01/03 14:20:34;;;;;;;22.83;13.90;;;3.40;99.90;;;;;;12901493;23;19938;-94
2021/01/03 14:25:36;;;;;;;23.58;13.35;;;3.40;99.90;;;;;;12876966;23;20028;-94
2021/01/03 14:30:38;;;;;;;24.30;14.45;;;3.30;99.90;;;;;;12877472;23;20103;-94
2021/01/03 14:35:46;;;;;;;20.65;12.82;;;3.20;99.90;;;;;;12852391;23;20044;-94
2021/01/03 14:40:50;;;;;;;21.30;12.73;;;3.30;99.90;;;;;;12877812;23;20146;-93
2021/01/03 14:46:06;;;;;;;19.45;12.38;;;3.30;99.90;;;;;;12901033;23;20114;-92
2021/01/03 14:51:50;;;;;;;19.33;12.25;;;3.30;99.90;;;;;;12880878;23;20020;-93
2021/01/03 14:57:00;;;;;;;15.20;9.90;;;3.30;99.90;;;;;;12876538;23;20024;-92
2021/01/03 15:02:05;;;;;;;17.67;10.95;;;3.20;99.90;;;;;;12903095;23;20016;-93
2021/01/03 15:07:12;;;;;;;21.90;12.10;;;3.20;99.90;;;;;;12902699;23;20035;-93
2021/01/03 15:12:17;;;;;;;19.00;10.82;;;3.20;99.90;;;;;;12878225;23;20047;-93
2021/01/03 15:17:43;;;;;;;18.35;11.63;;;3.20;99.90;;;;;;12851367;23;20039;-93
2021/01/03 15:23:02;;;;;;;18.38;10.57;;;3.20;99.90;;;;;;12900327;23;20016;-93
2021/01/03 15:28:06;;;;;;;21.73;12.35;;;3.20;99.90;;;;;;12926095;23;20017;-93
2021/01/03 15:33:12;;;;;;;19.30;11.77;;;3.20;99.90;;;;;;12900496;23;20020;-93
2021/01/03 15:38:18;;;;;;;18.92;11.70;;;3.30;99.90;;;;;;12876148;23;20024;-93
2021/01/03 15:43:46;;;;;;;15.32;8.85;;;3.20;99.90;;;;;;12876028;23;20075;-92
2021/01/03 15:48:54;;;;;;;15.00;9.07;;;3.20;99.90;;;;;;12925587;23;20031;-93
2021/01/03 15:54:03;;;;;;;13.82;9.30;;;3.20;99.90;;;;;;12876227;23;20040;-93
2021/01/03 15:59:05;;;;;;;12.23;7.97;;;3.00;99.90;;;;;;12876174;23;20048;-92
2021/01/03 16:04:11;;;;;;;11.30;7.60;;;3.10;99.90;;;;;;12852876;23;20020;-93
2021/01/03 16:09:25;;;;;;;11.98;7.40;;;3.10;99.90;;;;;;12875565;23;20051;-93
2021/01/03 16:14:27;;;;;;;13.80;7.93;;;3.00;99.90;;;;;;12875308;23;20036;-93
2021/01/03 16:19:38;;;;;;;12.25;7.88;;;3.00;99.90;;;;;;12828940;23;20039;-93
2021/01/03 16:25:02;;;;;;;12.80;7.25;;;2.90;99.90;;;;;;12902035;23;20465;-94
2021/01/03 16:30:22;;;;;;;9.52;7.10;;;2.90;99.90;;;;;;12900153;23;20040;-92
2021/01/03 16:35:33;;;;;;;8.90;6.45;;;2.90;99.90;;;;;;12872421;23;20099;-92
2021/01/03 16:41:15;;;;;;;7.80;5.53;;;2.90;99.90;;;;;;12898305;23;20027;-92
2021/01/03 16:46:57;;;;;;;11.23;6.57;;;2.90;99.90;;;;;;12875137;23;20081;-93
2021/01/03 16:52:28;;;;;;;9.07;6.47;;;2.90;99.90;;;;;;12924567;23;20020;-92
2021/01/03 16:57:54;;;;;;;9.25;6.85;;;2.90;99.90;;;;;;12874721;23;20350;-92
2021/01/03 17:03:07;;;;;;;8.32;6.25;;;2.90;99.90;;;;;;12874381;23;20024;-93
2021/01/03 17:08:25;;;;;;;10.93;7.93;;;2.90;99.90;;;;;;12876380;23;20047;-91
2021/01/03 17:13:46;;;;;;;13.15;9.73;;;2.80;99.90;;;;;;12879549;23;20024;-92
2021/01/03 17:19:32;;;;;;;10.00;7.40;;;2.90;99.90;;;;;;12903510;23;20020;-92
2021/01/03 17:24:55;;;;;;;11.73;7.87;;;2.90;99.90;;;;;;12878463;23;20024;-92
